Weather at Albalat de la Ribera

Public forecast

Using degrees Celsius for public forecast. Weather courtesy of forecast.io.

Closest aviation weather report (METAR) to Albalat de la Ribera

Closest report is Valencia Airport, 16.7 nm (30.9 km) NNW. Retrieved 2021/06/21 09:00 UTC (5 minutes ago):

LEVC 210900Z 28012KT 9999 FEW035 27/12 Q1010 NOSIG

Closest aviation forecast (TAF) to Albalat de la Ribera

Closest forecast is Valencia Airport, 16.7 nm (30.9 km) NNW. Retrieved 2021/06/21 06:27 UTC (3 hours ago):

TAF LEVC 210500Z 2106/2206 VRB05KT 9999 FEW040 TX32/2115Z TN19/2106Z BECMG 2108/2110 27010KT PROB40 TEMPO 2114/2120 14010KT